sensor_id;sensor_type;location;lat;lon;timestamp;pressure;altitude;pressure_sealevel;temperature
70969;BMP280;58630;43.022;25.100;2023-05-27T00:00:30;;;;22.00
70969;BMP280;58630;43.022;25.100;2023-05-27T00:02:57;;;;22.00
70969;BMP280;58630;43.022;25.100;2023-05-27T00:05:23;;;;22.00
70969;BMP280;58630;43.022;25.100;2023-05-27T00:07:48;;;;22.00
70969;BMP280;58630;43.022;25.100;2023-05-27T00:10:14;;;;22.00
70969;BMP280;58630;43.022;25.100;2023-05-27T00:12:40;;;;22.00
70969;BMP280;58630;43.022;25.100;2023-05-27T00:15:05;;;;21.90
70969;BMP280;58630;43.022;25.100;2023-05-27T00:17:31;;;;22.00
70969;BMP280;58630;43.022;25.100;2023-05-27T00:19:58;;;;21.90
70969;BMP280;58630;43.022;25.100;2023-05-27T00:22:31;;;;21.90
70969;BMP280;58630;43.022;25.100;2023-05-27T00:24:56;;;;21.90
70969;BMP280;58630;43.022;25.100;2023-05-27T00:27:22;;;;21.90
70969;BMP280;58630;43.022;25.100;2023-05-27T00:29:47;;;;21.90
70969;BMP280;58630;43.022;25.100;2023-05-27T00:32:13;;;;21.90
70969;BMP280;58630;43.022;25.100;2023-05-27T00:34:38;;;;21.90
70969;BMP280;58630;43.022;25.100;2023-05-27T00:37:04;;;;21.90
70969;BMP280;58630;43.022;25.100;2023-05-27T00:39:30;;;;21.80
70969;BMP280;58630;43.022;25.100;2023-05-27T00:41:56;;;;21.80
70969;BMP280;58630;43.022;25.100;2023-05-27T00:44:22;;;;21.80
70969;BMP280;58630;43.022;25.100;2023-05-27T00:46:48;;;;21.80
70969;BMP280;58630;43.022;25.100;2023-05-27T00:49:14;;;;21.80
70969;BMP280;58630;43.022;25.100;2023-05-27T00:51:40;;;;21.80
70969;BMP280;58630;43.022;25.100;2023-05-27T00:54:07;;;;21.80
70969;BMP280;58630;43.022;25.100;2023-05-27T00:56:32;;;;21.80
70969;BMP280;58630;43.022;25.100;2023-05-27T00:58:58;;;;21.80
70969;BMP280;58630;43.022;25.100;2023-05-27T01:01:23;;;;21.80
70969;BMP280;58630;43.022;25.100;2023-05-27T01:03:51;;;;21.70
70969;BMP280;58630;43.022;25.100;2023-05-27T01:06:21;;;;21.70
70969;BMP280;58630;43.022;25.100;2023-05-27T01:11:20;;;;21.70
70969;BMP280;58630;43.022;25.100;2023-05-27T01:13:49;;;;21.70
70969;BMP280;58630;43.022;25.100;2023-05-27T01:16:16;;;;21.70
70969;BMP280;58630;43.022;25.100;2023-05-27T01:18:45;;;;21.70
70969;BMP280;58630;43.022;25.100;2023-05-27T01:21:12;;;;21.70
70969;BMP280;58630;43.022;25.100;2023-05-27T01:23:38;;;;21.60
70969;BMP280;58630;43.022;25.100;2023-05-27T01:26:06;;;;21.70
70969;BMP280;58630;43.022;25.100;2023-05-27T01:28:31;;;;21.60
70969;BMP280;58630;43.022;25.100;2023-05-27T01:31:01;;;;21.60
70969;BMP280;58630;43.022;25.100;2023-05-27T01:33:27;;;;21.60
70969;BMP280;58630;43.022;25.100;2023-05-27T01:35:58;;;;21.60
70969;BMP280;58630;43.022;25.100;2023-05-27T01:38:25;;;;21.60
70969;BMP280;58630;43.022;25.100;2023-05-27T01:40:51;;;;21.60
70969;BMP280;58630;43.022;25.100;2023-05-27T01:43:18;;;;21.60
70969;BMP280;58630;43.022;25.100;2023-05-27T01:45:44;;;;21.60
70969;BMP280;58630;43.022;25.100;2023-05-27T01:48:09;;;;21.60
70969;BMP280;58630;43.022;25.100;2023-05-27T01:50:35;;;;21.60
70969;BMP280;58630;43.022;25.100;2023-05-27T01:53:01;;;;21.50
70969;BMP280;58630;43.022;25.100;2023-05-27T01:55:27;;;;21.50
70969;BMP280;58630;43.022;25.100;2023-05-27T01:57:52;;;;21.50
70969;BMP280;58630;43.022;25.100;2023-05-27T02:00:18;;;;21.50
70969;BMP280;58630;43.022;25.100;2023-05-27T02:02:44;;;;21.50
70969;BMP280;58630;43.022;25.100;2023-05-27T02:05:09;;;;21.50
70969;BMP280;58630;43.022;25.100;2023-05-27T02:07:35;;;;21.50
70969;BMP280;58630;43.022;25.100;2023-05-27T02:10:01;;;;21.50
70969;BMP280;58630;43.022;25.100;2023-05-27T02:12:27;;;;21.50
70969;BMP280;58630;43.022;25.100;2023-05-27T02:14:52;;;;21.40
70969;BMP280;58630;43.022;25.100;2023-05-27T02:17:18;;;;21.50
70969;BMP280;58630;43.022;25.100;2023-05-27T02:19:44;;;;21.40
70969;BMP280;58630;43.022;25.100;2023-05-27T02:22:10;;;;21.40
70969;BMP280;58630;43.022;25.100;2023-05-27T02:24:36;;;;21.40
70969;BMP280;58630;43.022;25.100;2023-05-27T02:27:01;;;;21.40
70969;BMP280;58630;43.022;25.100;2023-05-27T02:29:27;;;;21.40
70969;BMP280;58630;43.022;25.100;2023-05-27T02:31:53;;;;21.40
70969;BMP280;58630;43.022;25.100;2023-05-27T02:34:18;;;;21.40
70969;BMP280;58630;43.022;25.100;2023-05-27T02:36:44;;;;21.40
70969;BMP280;58630;43.022;25.100;2023-05-27T02:39:09;;;;21.40
70969;BMP280;58630;43.022;25.100;2023-05-27T02:41:35;;;;21.40
70969;BMP280;58630;43.022;25.100;2023-05-27T02:44:01;;;;21.40
70969;BMP280;58630;43.022;25.100;2023-05-27T02:46:27;;;;21.40
70969;BMP280;58630;43.022;25.100;2023-05-27T02:48:53;;;;21.30
70969;BMP280;58630;43.022;25.100;2023-05-27T02:51:18;;;;21.40
70969;BMP280;58630;43.022;25.100;2023-05-27T02:53:44;;;;21.30
70969;BMP280;58630;43.022;25.100;2023-05-27T02:56:10;;;;21.30
70969;BMP280;58630;43.022;25.100;2023-05-27T02:58:35;;;;21.30
70969;BMP280;58630;43.022;25.100;2023-05-27T03:01:01;;;;21.30
70969;BMP280;58630;43.022;25.100;2023-05-27T03:03:26;;;;21.30
70969;BMP280;58630;43.022;25.100;2023-05-27T03:05:52;;;;21.30
70969;BMP280;58630;43.022;25.100;2023-05-27T03:08:17;;;;21.30
70969;BMP280;58630;43.022;25.100;2023-05-27T03:10:43;;;;21.30
70969;BMP280;58630;43.022;25.100;2023-05-27T03:13:08;;;;21.30
70969;BMP280;58630;43.022;25.100;2023-05-27T03:15:34;;;;21.20
70969;BMP280;58630;43.022;25.100;2023-05-27T03:18:00;;;;21.30
70969;BMP280;58630;43.022;25.100;2023-05-27T03:20:27;;;;21.20
70969;BMP280;58630;43.022;25.100;2023-05-27T03:22:52;;;;21.20
70969;BMP280;58630;43.022;25.100;2023-05-27T03:25:18;;;;21.20
70969;BMP280;58630;43.022;25.100;2023-05-27T03:27:43;;;;21.20
70969;BMP280;58630;43.022;25.100;2023-05-27T03:30:09;;;;21.20
70969;BMP280;58630;43.022;25.100;2023-05-27T03:32:36;;;;21.20
70969;BMP280;58630;43.022;25.100;2023-05-27T03:35:01;;;;21.20
70969;BMP280;58630;43.022;25.100;2023-05-27T03:37:27;;;;21.20
70969;BMP280;58630;43.022;25.100;2023-05-27T03:39:53;;;;21.20
70969;BMP280;58630;43.022;25.100;2023-05-27T03:42:18;;;;21.20
70969;BMP280;58630;43.022;25.100;2023-05-27T03:44:44;;;;21.20
70969;BMP280;58630;43.022;25.100;2023-05-27T03:47:09;;;;21.20
70969;BMP280;58630;43.022;25.100;2023-05-27T03:49:35;;;;21.20
70969;BMP280;58630;43.022;25.100;2023-05-27T03:52:00;;;;21.20
70969;BMP280;58630;43.022;25.100;2023-05-27T03:54:26;;;;21.20
70969;BMP280;58630;43.022;25.100;2023-05-27T03:56:51;;;;21.20
70969;BMP280;58630;43.022;25.100;2023-05-27T03:59:17;;;;21.10
70969;BMP280;58630;43.022;25.100;2023-05-27T04:01:46;;;;21.20
70969;BMP280;58630;43.022;25.100;2023-05-27T04:04:12;;;;21.10
70969;BMP280;58630;43.022;25.100;2023-05-27T04:06:38;;;;21.10
70969;BMP280;58630;43.022;25.100;2023-05-27T04:09:04;;;;21.10
70969;BMP280;58630;43.022;25.100;2023-05-27T04:11:30;;;;21.10
70969;BMP280;58630;43.022;25.100;2023-05-27T04:13:56;;;;21.10
70969;BMP280;58630;43.022;25.100;2023-05-27T04:16:21;;;;21.10
70969;BMP280;58630;43.022;25.100;2023-05-27T04:18:47;;;;21.10
70969;BMP280;58630;43.022;25.100;2023-05-27T04:21:14;;;;21.10
70969;BMP280;58630;43.022;25.100;2023-05-27T04:23:40;;;;21.10
70969;BMP280;58630;43.022;25.100;2023-05-27T04:26:06;;;;21.10
70969;BMP280;58630;43.022;25.100;2023-05-27T04:28:31;;;;21.10
70969;BMP280;58630;43.022;25.100;2023-05-27T04:30:59;;;;21.10
70969;BMP280;58630;43.022;25.100;2023-05-27T04:33:25;;;;21.10
70969;BMP280;58630;43.022;25.100;2023-05-27T04:35:51;;;;21.10
70969;BMP280;58630;43.022;25.100;2023-05-27T04:38:22;;;;21.10
70969;BMP280;58630;43.022;25.100;2023-05-27T04:40:48;;;;21.10
70969;BMP280;58630;43.022;25.100;2023-05-27T04:43:20;;;;21.10
70969;BMP280;58630;43.022;25.100;2023-05-27T04:45:46;;;;21.10
70969;BMP280;58630;43.022;25.100;2023-05-27T04:48:12;;;;21.10
70969;BMP280;58630;43.022;25.100;2023-05-27T04:50:37;;;;21.10
70969;BMP280;58630;43.022;25.100;2023-05-27T04:53:04;;;;21.10
70969;BMP280;58630;43.022;25.100;2023-05-27T04:55:29;;;;21.10
70969;BMP280;58630;43.022;25.100;2023-05-27T04:57:55;;;;21.10
70969;BMP280;58630;43.022;25.100;2023-05-27T05:00:21;;;;21.10
70969;BMP280;58630;43.022;25.100;2023-05-27T05:03:19;;;;21.10
70969;BMP280;58630;43.022;25.100;2023-05-27T05:05:51;;;;21.10
70969;BMP280;58630;43.022;25.100;2023-05-27T05:08:20;;;;21.10
70969;BMP280;58630;43.022;25.100;2023-05-27T05:10:46;;;;21.10
70969;BMP280;58630;43.022;25.100;2023-05-27T05:13:12;;;;21.10
70969;BMP280;58630;43.022;25.100;2023-05-27T05:15:39;;;;21.10
70969;BMP280;58630;43.022;25.100;2023-05-27T05:18:05;;;;21.10
70969;BMP280;58630;43.022;25.100;2023-05-27T05:20:31;;;;21.10
70969;BMP280;58630;43.022;25.100;2023-05-27T05:22:57;;;;21.10
70969;BMP280;58630;43.022;25.100;2023-05-27T05:25:23;;;;21.10
70969;BMP280;58630;43.022;25.100;2023-05-27T05:27:48;;;;21.10
70969;BMP280;58630;43.022;25.100;2023-05-27T05:30:14;;;;21.10
70969;BMP280;58630;43.022;25.100;2023-05-27T05:32:39;;;;21.10
70969;BMP280;58630;43.022;25.100;2023-05-27T05:35:05;;;;21.10
70969;BMP280;58630;43.022;25.100;2023-05-27T05:37:31;;;;21.10
70969;BMP280;58630;43.022;25.100;2023-05-27T05:39:56;;;;21.10
70969;BMP280;58630;43.022;25.100;2023-05-27T05:42:22;;;;21.10
70969;BMP280;58630;43.022;25.100;2023-05-27T05:44:50;;;;21.10
70969;BMP280;58630;43.022;25.100;2023-05-27T05:47:16;;;;21.10
70969;BMP280;58630;43.022;25.100;2023-05-27T05:49:41;;;;21.10
70969;BMP280;58630;43.022;25.100;2023-05-27T05:52:07;;;;21.20
70969;BMP280;58630;43.022;25.100;2023-05-27T05:54:32;;;;21.20
70969;BMP280;58630;43.022;25.100;2023-05-27T05:56:58;;;;21.20
70969;BMP280;58630;43.022;25.100;2023-05-27T05:59:24;;;;21.20
70969;BMP280;58630;43.022;25.100;2023-05-27T06:01:49;;;;21.20
70969;BMP280;58630;43.022;25.100;2023-05-27T06:04:15;;;;21.20
70969;BMP280;58630;43.022;25.100;2023-05-27T06:06:42;;;;21.20
70969;BMP280;58630;43.022;25.100;2023-05-27T06:09:08;;;;21.20
70969;BMP280;58630;43.022;25.100;2023-05-27T06:11:33;;;;21.20
70969;BMP280;58630;43.022;25.100;2023-05-27T06:13:59;;;;21.20
70969;BMP280;58630;43.022;25.100;2023-05-27T06:16:25;;;;21.20
70969;BMP280;58630;43.022;25.100;2023-05-27T06:18:50;;;;21.20
70969;BMP280;58630;43.022;25.100;2023-05-27T06:21:17;;;;21.20
70969;BMP280;58630;43.022;25.100;2023-05-27T06:23:42;;;;21.20
70969;BMP280;58630;43.022;25.100;2023-05-27T06:26:08;;;;21.20
70969;BMP280;58630;43.022;25.100;2023-05-27T06:28:34;;;;21.20
70969;BMP280;58630;43.022;25.100;2023-05-27T06:30:59;;;;21.20
70969;BMP280;58630;43.022;25.100;2023-05-27T06:33:25;;;;21.20
70969;BMP280;58630;43.022;25.100;2023-05-27T06:35:50;;;;21.20
70969;BMP280;58630;43.022;25.100;2023-05-27T06:38:16;;;;21.20
70969;BMP280;58630;43.022;25.100;2023-05-27T06:40:41;;;;21.20
70969;BMP280;58630;43.022;25.100;2023-05-27T06:43:07;;;;21.20
70969;BMP280;58630;43.022;25.100;2023-05-27T06:45:32;;;;21.20
70969;BMP280;58630;43.022;25.100;2023-05-27T06:47:58;;;;21.20
70969;BMP280;58630;43.022;25.100;2023-05-27T06:50:23;;;;21.30
70969;BMP280;58630;43.022;25.100;2023-05-27T06:52:49;;;;21.30
70969;BMP280;58630;43.022;25.100;2023-05-27T06:55:14;;;;21.30
70969;BMP280;58630;43.022;25.100;2023-05-27T06:57:40;;;;21.30
70969;BMP280;58630;43.022;25.100;2023-05-27T07:00:06;;;;21.20
70969;BMP280;58630;43.022;25.100;2023-05-27T07:02:31;;;;21.20
70969;BMP280;58630;43.022;25.100;2023-05-27T07:04:57;;;;21.20
70969;BMP280;58630;43.022;25.100;2023-05-27T07:07:22;;;;21.20
70969;BMP280;58630;43.022;25.100;2023-05-27T07:09:48;;;;21.20
70969;BMP280;58630;43.022;25.100;2023-05-27T07:12:13;;;;21.20
70969;BMP280;58630;43.022;25.100;2023-05-27T07:14:39;;;;21.20
70969;BMP280;58630;43.022;25.100;2023-05-27T07:17:05;;;;21.20
70969;BMP280;58630;43.022;25.100;2023-05-27T07:19:30;;;;21.20
70969;BMP280;58630;43.022;25.100;2023-05-27T07:21:56;;;;21.20
70969;BMP280;58630;43.022;25.100;2023-05-27T07:24:21;;;;21.20
70969;BMP280;58630;43.022;25.100;2023-05-27T07:26:47;;;;21.20
70969;BMP280;58630;43.022;25.100;2023-05-27T07:29:12;;;;21.20
70969;BMP280;58630;43.022;25.100;2023-05-27T07:31:38;;;;21.20
70969;BMP280;58630;43.022;25.100;2023-05-27T07:34:03;;;;21.20
70969;BMP280;58630;43.022;25.100;2023-05-27T07:36:29;;;;21.20
70969;BMP280;58630;43.022;25.100;2023-05-27T07:38:55;;;;21.20
70969;BMP280;58630;43.022;25.100;2023-05-27T07:41:20;;;;21.20
70969;BMP280;58630;43.022;25.100;2023-05-27T07:43:46;;;;21.20
70969;BMP280;58630;43.022;25.100;2023-05-27T07:46:12;;;;21.20
70969;BMP280;58630;43.022;25.100;2023-05-27T07:48:37;;;;21.20
70969;BMP280;58630;43.022;25.100;2023-05-27T07:51:03;;;;21.20
70969;BMP280;58630;43.022;25.100;2023-05-27T07:53:29;;;;21.20
70969;BMP280;58630;43.022;25.100;2023-05-27T07:55:54;;;;21.20
70969;BMP280;58630;43.022;25.100;2023-05-27T07:58:20;;;;21.20
70969;BMP280;58630;43.022;25.100;2023-05-27T08:00:45;;;;21.20
70969;BMP280;58630;43.022;25.100;2023-05-27T08:03:11;;;;21.20
70969;BMP280;58630;43.022;25.100;2023-05-27T08:05:36;;;;21.30
70969;BMP280;58630;43.022;25.100;2023-05-27T08:08:02;;;;21.30
70969;BMP280;58630;43.022;25.100;2023-05-27T08:10:27;;;;21.30
70969;BMP280;58630;43.022;25.100;2023-05-27T08:12:53;;;;21.30
70969;BMP280;58630;43.022;25.100;2023-05-27T08:15:18;;;;21.30
70969;BMP280;58630;43.022;25.100;2023-05-27T08:17:44;;;;21.30
70969;BMP280;58630;43.022;25.100;2023-05-27T08:20:10;;;;21.30
70969;BMP280;58630;43.022;25.100;2023-05-27T08:22:36;;;;21.30
70969;BMP280;58630;43.022;25.100;2023-05-27T08:25:01;;;;21.30
70969;BMP280;58630;43.022;25.100;2023-05-27T08:30:08;;;;21.40
70969;BMP280;58630;43.022;25.100;2023-05-27T08:32:33;;;;21.40
70969;BMP280;58630;43.022;25.100;2023-05-27T08:34:59;;;;21.40
70969;BMP280;58630;43.022;25.100;2023-05-27T08:37:25;;;;21.40
70969;BMP280;58630;43.022;25.100;2023-05-27T08:39:50;;;;21.40
70969;BMP280;58630;43.022;25.100;2023-05-27T08:42:16;;;;21.40
70969;BMP280;58630;43.022;25.100;2023-05-27T08:44:42;;;;21.50
70969;BMP280;58630;43.022;25.100;2023-05-27T08:47:07;;;;21.50
70969;BMP280;58630;43.022;25.100;2023-05-27T08:49:33;;;;21.50
70969;BMP280;58630;43.022;25.100;2023-05-27T08:51:58;;;;21.50
70969;BMP280;58630;43.022;25.100;2023-05-27T08:54:26;;;;21.50
70969;BMP280;58630;43.022;25.100;2023-05-27T08:56:52;;;;21.50
70969;BMP280;58630;43.022;25.100;2023-05-27T08:59:18;;;;21.50
70969;BMP280;58630;43.022;25.100;2023-05-27T09:01:44;;;;21.50
70969;BMP280;58630;43.022;25.100;2023-05-27T09:04:10;;;;21.50
70969;BMP280;58630;43.022;25.100;2023-05-27T09:06:35;;;;21.60
70969;BMP280;58630;43.022;25.100;2023-05-27T09:09:01;;;;21.60
70969;BMP280;58630;43.022;25.100;2023-05-27T09:11:26;;;;21.60
70969;BMP280;58630;43.022;25.100;2023-05-27T09:13:59;;;;21.60
70969;BMP280;58630;43.022;25.100;2023-05-27T09:16:25;;;;21.60
70969;BMP280;58630;43.022;25.100;2023-05-27T09:18:50;;;;21.60
70969;BMP280;58630;43.022;25.100;2023-05-27T09:21:16;;;;21.60
70969;BMP280;58630;43.022;25.100;2023-05-27T09:23:42;;;;21.70
70969;BMP280;58630;43.022;25.100;2023-05-27T09:26:08;;;;21.70
70969;BMP280;58630;43.022;25.100;2023-05-27T09:28:35;;;;21.70
70969;BMP280;58630;43.022;25.100;2023-05-27T09:33:03;;;;21.70
70969;BMP280;58630;43.022;25.100;2023-05-27T09:35:29;;;;21.70
70969;BMP280;58630;43.022;25.100;2023-05-27T09:37:55;;;;21.80
70969;BMP280;58630;43.022;25.100;2023-05-27T09:40:30;;;;21.80
70969;BMP280;58630;43.022;25.100;2023-05-27T09:42:56;;;;21.80
70969;BMP280;58630;43.022;25.100;2023-05-27T09:45:22;;;;21.80
70969;BMP280;58630;43.022;25.100;2023-05-27T09:47:48;;;;21.90
70969;BMP280;58630;43.022;25.100;2023-05-27T09:50:14;;;;21.90
70969;BMP280;58630;43.022;25.100;2023-05-27T09:52:40;;;;21.90
70969;BMP280;58630;43.022;25.100;2023-05-27T09:55:10;;;;22.00
70969;BMP280;58630;43.022;25.100;2023-05-27T09:57:37;;;;22.00
70969;BMP280;58630;43.022;25.100;2023-05-27T10:00:03;;;;22.00
70969;BMP280;58630;43.022;25.100;2023-05-27T10:02:47;;;;22.10
70969;BMP280;58630;43.022;25.100;2023-05-27T10:05:14;;;;22.10
70969;BMP280;58630;43.022;25.100;2023-05-27T10:07:41;;;;22.10
70969;BMP280;58630;43.022;25.100;2023-05-27T10:10:07;;;;22.10
70969;BMP280;58630;43.022;25.100;2023-05-27T10:12:34;;;;22.20
70969;BMP280;58630;43.022;25.100;2023-05-27T10:15:01;;;;22.20
70969;BMP280;58630;43.022;25.100;2023-05-27T10:17:26;;;;22.20
70969;BMP280;58630;43.022;25.100;2023-05-27T10:19:58;;;;22.20
70969;BMP280;58630;43.022;25.100;2023-05-27T10:22:24;;;;22.30
70969;BMP280;58630;43.022;25.100;2023-05-27T10:24:49;;;;22.30
70969;BMP280;58630;43.022;25.100;2023-05-27T10:27:18;;;;22.30
70969;BMP280;58630;43.022;25.100;2023-05-27T10:29:44;;;;22.30
70969;BMP280;58630;43.022;25.100;2023-05-27T10:32:09;;;;22.40
70969;BMP280;58630;43.022;25.100;2023-05-27T10:34:35;;;;22.40
70969;BMP280;58630;43.022;25.100;2023-05-27T10:37:01;;;;22.40
70969;BMP280;58630;43.022;25.100;2023-05-27T10:39:27;;;;22.40
70969;BMP280;58630;43.022;25.100;2023-05-27T10:41:53;;;;22.40
70969;BMP280;58630;43.022;25.100;2023-05-27T10:44:26;;;;22.50
70969;BMP280;58630;43.022;25.100;2023-05-27T10:46:58;;;;22.50
70969;BMP280;58630;43.022;25.100;2023-05-27T10:49:25;;;;22.50
70969;BMP280;58630;43.022;25.100;2023-05-27T10:51:50;;;;22.50
70969;BMP280;58630;43.022;25.100;2023-05-27T10:54:17;;;;22.50
70969;BMP280;58630;43.022;25.100;2023-05-27T10:56:49;;;;22.50
70969;BMP280;58630;43.022;25.100;2023-05-27T10:59:19;;;;22.50
70969;BMP280;58630;43.022;25.100;2023-05-27T11:01:45;;;;22.60
70969;BMP280;58630;43.022;25.100;2023-05-27T11:04:12;;;;22.60
70969;BMP280;58630;43.022;25.100;2023-05-27T11:06:37;;;;22.60
70969;BMP280;58630;43.022;25.100;2023-05-27T11:09:03;;;;22.60
70969;BMP280;58630;43.022;25.100;2023-05-27T11:11:29;;;;22.60
70969;BMP280;58630;43.022;25.100;2023-05-27T11:13:54;;;;22.70
70969;BMP280;58630;43.022;25.100;2023-05-27T11:16:20;;;;22.70
70969;BMP280;58630;43.022;25.100;2023-05-27T11:18:46;;;;22.70
70969;BMP280;58630;43.022;25.100;2023-05-27T11:21:12;;;;22.70
70969;BMP280;58630;43.022;25.100;2023-05-27T11:23:42;;;;22.80
70969;BMP280;58630;43.022;25.100;2023-05-27T11:26:14;;;;22.80
70969;BMP280;58630;43.022;25.100;2023-05-27T11:28:50;;;;22.80
70969;BMP280;58630;43.022;25.100;2023-05-27T11:31:16;;;;22.80
70969;BMP280;58630;43.022;25.100;2023-05-27T11:33:42;;;;22.80
70969;BMP280;58630;43.022;25.100;2023-05-27T11:36:13;;;;22.90
70969;BMP280;58630;43.022;25.100;2023-05-27T11:38:45;;;;22.90
70969;BMP280;58630;43.022;25.100;2023-05-27T11:41:11;;;;23.00
70969;BMP280;58630;43.022;25.100;2023-05-27T11:43:37;;;;23.00
70969;BMP280;58630;43.022;25.100;2023-05-27T11:46:11;;;;23.10
70969;BMP280;58630;43.022;25.100;2023-05-27T11:48:36;;;;23.20
70969;BMP280;58630;43.022;25.100;2023-05-27T11:51:02;;;;23.40
70969;BMP280;58630;43.022;25.100;2023-05-27T11:53:27;;;;23.40
70969;BMP280;58630;43.022;25.100;2023-05-27T11:55:55;;;;23.50
70969;BMP280;58630;43.022;25.100;2023-05-27T11:58:20;;;;23.50
70969;BMP280;58630;43.022;25.100;2023-05-27T12:00:46;;;;23.60
70969;BMP280;58630;43.022;25.100;2023-05-27T12:03:12;;;;23.70
70969;BMP280;58630;43.022;25.100;2023-05-27T12:05:37;;;;23.80
70969;BMP280;58630;43.022;25.100;2023-05-27T12:08:03;;;;24.00
70969;BMP280;58630;43.022;25.100;2023-05-27T12:10:28;;;;24.20
70969;BMP280;58630;43.022;25.100;2023-05-27T12:13:06;;;;24.30
70969;BMP280;58630;43.022;25.100;2023-05-27T12:15:32;;;;24.50
70969;BMP280;58630;43.022;25.100;2023-05-27T12:17:58;;;;24.70
70969;BMP280;58630;43.022;25.100;2023-05-27T12:20:23;;;;24.90
70969;BMP280;58630;43.022;25.100;2023-05-27T12:22:54;;;;25.10
70969;BMP280;58630;43.022;25.100;2023-05-27T12:25:20;;;;25.30
70969;BMP280;58630;43.022;25.100;2023-05-27T12:27:45;;;;25.50
70969;BMP280;58630;43.022;25.100;2023-05-27T12:30:11;;;;25.60
70969;BMP280;58630;43.022;25.100;2023-05-27T12:32:37;;;;25.80
70969;BMP280;58630;43.022;25.100;2023-05-27T12:35:03;;;;26.00
70969;BMP280;58630;43.022;25.100;2023-05-27T12:37:29;;;;25.80
70969;BMP280;58630;43.022;25.100;2023-05-27T12:39:55;;;;25.70
70969;BMP280;58630;43.022;25.100;2023-05-27T12:42:20;;;;25.70
70969;BMP280;58630;43.022;25.100;2023-05-27T12:44:46;;;;25.60
70969;BMP280;58630;43.022;25.100;2023-05-27T12:47:11;;;;25.60
70969;BMP280;58630;43.022;25.100;2023-05-27T12:49:37;;;;25.50
70969;BMP280;58630;43.022;25.100;2023-05-27T12:52:03;;;;25.60
70969;BMP280;58630;43.022;25.100;2023-05-27T12:54:28;;;;25.60
70969;BMP280;58630;43.022;25.100;2023-05-27T12:56:54;;;;25.70
70969;BMP280;58630;43.022;25.100;2023-05-27T12:59:20;;;;25.60
70969;BMP280;58630;43.022;25.100;2023-05-27T13:01:45;;;;25.60
70969;BMP280;58630;43.022;25.100;2023-05-27T13:04:11;;;;25.60
70969;BMP280;58630;43.022;25.100;2023-05-27T13:06:37;;;;25.70
70969;BMP280;58630;43.022;25.100;2023-05-27T13:09:03;;;;25.70
70969;BMP280;58630;43.022;25.100;2023-05-27T13:11:29;;;;25.80
70969;BMP280;58630;43.022;25.100;2023-05-27T13:13:55;;;;25.80
70969;BMP280;58630;43.022;25.100;2023-05-27T13:16:20;;;;25.90
70969;BMP280;58630;43.022;25.100;2023-05-27T13:18:46;;;;25.90
70969;BMP280;58630;43.022;25.100;2023-05-27T13:21:11;;;;25.90
70969;BMP280;58630;43.022;25.100;2023-05-27T13:23:37;;;;26.10
70969;BMP280;58630;43.022;25.100;2023-05-27T13:26:02;;;;26.20
70969;BMP280;58630;43.022;25.100;2023-05-27T13:28:28;;;;26.20
70969;BMP280;58630;43.022;25.100;2023-05-27T13:30:54;;;;26.30
70969;BMP280;58630;43.022;25.100;2023-05-27T13:33:19;;;;26.40
70969;BMP280;58630;43.022;25.100;2023-05-27T13:35:45;;;;26.50
70969;BMP280;58630;43.022;25.100;2023-05-27T13:38:10;;;;26.60
70969;BMP280;58630;43.022;25.100;2023-05-27T13:40:39;;;;26.60
70969;BMP280;58630;43.022;25.100;2023-05-27T13:43:04;;;;26.70
70969;BMP280;58630;43.022;25.100;2023-05-27T13:45:30;;;;26.70
70969;BMP280;58630;43.022;25.100;2023-05-27T13:47:55;;;;26.80
70969;BMP280;58630;43.022;25.100;2023-05-27T13:50:21;;;;27.00
70969;BMP280;58630;43.022;25.100;2023-05-27T13:52:46;;;;27.10
70969;BMP280;58630;43.022;25.100;2023-05-27T13:55:12;;;;27.20
70969;BMP280;58630;43.022;25.100;2023-05-27T13:57:38;;;;27.30
70969;BMP280;58630;43.022;25.100;2023-05-27T14:00:03;;;;27.30
70969;BMP280;58630;43.022;25.100;2023-05-27T14:02:31;;;;27.40
70969;BMP280;58630;43.022;25.100;2023-05-27T14:04:57;;;;27.50
70969;BMP280;58630;43.022;25.100;2023-05-27T14:07:22;;;;27.50
70969;BMP280;58630;43.022;25.100;2023-05-27T14:09:48;;;;27.60
70969;BMP280;58630;43.022;25.100;2023-05-27T14:12:14;;;;27.60
70969;BMP280;58630;43.022;25.100;2023-05-27T14:14:40;;;;27.50
70969;BMP280;58630;43.022;25.100;2023-05-27T14:17:06;;;;27.50
70969;BMP280;58630;43.022;25.100;2023-05-27T14:19:33;;;;27.70
70969;BMP280;58630;43.022;25.100;2023-05-27T14:21:59;;;;27.80
70969;BMP280;58630;43.022;25.100;2023-05-27T14:24:24;;;;27.80
70969;BMP280;58630;43.022;25.100;2023-05-27T14:26:50;;;;27.90
70969;BMP280;58630;43.022;25.100;2023-05-27T14:29:15;;;;27.90
70969;BMP280;58630;43.022;25.100;2023-05-27T14:31:41;;;;28.00
70969;BMP280;58630;43.022;25.100;2023-05-27T14:34:07;;;;28.00
70969;BMP280;58630;43.022;25.100;2023-05-27T14:36:33;;;;28.00
70969;BMP280;58630;43.022;25.100;2023-05-27T14:38:58;;;;27.90
70969;BMP280;58630;43.022;25.100;2023-05-27T14:41:28;;;;27.90
70969;BMP280;58630;43.022;25.100;2023-05-27T14:43:54;;;;27.90
70969;BMP280;58630;43.022;25.100;2023-05-27T14:46:19;;;;27.90
70969;BMP280;58630;43.022;25.100;2023-05-27T14:48:45;;;;27.90
70969;BMP280;58630;43.022;25.100;2023-05-27T14:51:10;;;;28.00
70969;BMP280;58630;43.022;25.100;2023-05-27T14:53:37;;;;28.20
70969;BMP280;58630;43.022;25.100;2023-05-27T14:56:02;;;;28.30
70969;BMP280;58630;43.022;25.100;2023-05-27T14:58:28;;;;28.40
70969;BMP280;58630;43.022;25.100;2023-05-27T15:00:53;;;;28.40
70969;BMP280;58630;43.022;25.100;2023-05-27T15:03:19;;;;28.50
70969;BMP280;58630;43.022;25.100;2023-05-27T15:05:44;;;;28.60
70969;BMP280;58630;43.022;25.100;2023-05-27T15:08:10;;;;28.70
70969;BMP280;58630;43.022;25.100;2023-05-27T15:10:43;;;;28.70
70969;BMP280;58630;43.022;25.100;2023-05-27T15:13:09;;;;28.80
70969;BMP280;58630;43.022;25.100;2023-05-27T15:15:36;;;;28.80
70969;BMP280;58630;43.022;25.100;2023-05-27T15:18:05;;;;28.80
70969;BMP280;58630;43.022;25.100;2023-05-27T15:20:31;;;;28.80
70969;BMP280;58630;43.022;25.100;2023-05-27T15:22:56;;;;28.90
70969;BMP280;58630;43.022;25.100;2023-05-27T15:25:22;;;;28.80
70969;BMP280;58630;43.022;25.100;2023-05-27T15:27:48;;;;29.00
70969;BMP280;58630;43.022;25.100;2023-05-27T15:30:13;;;;29.00
70969;BMP280;58630;43.022;25.100;2023-05-27T15:32:39;;;;29.10
70969;BMP280;58630;43.022;25.100;2023-05-27T15:35:05;;;;29.20
70969;BMP280;58630;43.022;25.100;2023-05-27T15:37:36;;;;29.30
70969;BMP280;58630;43.022;25.100;2023-05-27T15:40:03;;;;29.20
70969;BMP280;58630;43.022;25.100;2023-05-27T15:42:28;;;;29.20
70969;BMP280;58630;43.022;25.100;2023-05-27T15:44:54;;;;29.20